sensor_id;sensor_type;location;lat;lon;timestamp;P1;durP1;ratioP1;P2;durP2;ratioP2
28437;SDS011;15667;52.376;9.708;2023-03-14T00:01:58;4.57;;;1.30;;
28437;SDS011;15667;52.376;9.708;2023-03-14T00:04:24;3.28;;;1.25;;
28437;SDS011;15667;52.376;9.708;2023-03-14T00:06:50;6.55;;;1.20;;
28437;SDS011;15667;52.376;9.708;2023-03-14T00:09:18;4.85;;;1.42;;
28437;SDS011;15667;52.376;9.708;2023-03-14T00:11:44;7.53;;;1.52;;
28437;SDS011;15667;52.376;9.708;2023-03-14T00:14:10;6.18;;;1.15;;
28437;SDS011;15667;52.376;9.708;2023-03-14T00:16:36;4.32;;;1.20;;
28437;SDS011;15667;52.376;9.708;2023-03-14T00:19:02;7.57;;;1.30;;
28437;SDS011;15667;52.376;9.708;2023-03-14T00:21:28;4.65;;;1.38;;
28437;SDS011;15667;52.376;9.708;2023-03-14T00:23:54;3.95;;;0.93;;
28437;SDS011;15667;52.376;9.708;2023-03-14T00:26:25;2.70;;;0.90;;
28437;SDS011;15667;52.376;9.708;2023-03-14T00:28:51;4.70;;;1.20;;
28437;SDS011;15667;52.376;9.708;2023-03-14T00:31:18;4.15;;;1.20;;
28437;SDS011;15667;52.376;9.708;2023-03-14T00:33:44;4.22;;;1.20;;
28437;SDS011;15667;52.376;9.708;2023-03-14T00:36:11;4.72;;;1.02;;
28437;SDS011;15667;52.376;9.708;2023-03-14T00:38:40;5.22;;;1.55;;
28437;SDS011;15667;52.376;9.708;2023-03-14T00:41:08;5.20;;;1.40;;
28437;SDS011;15667;52.376;9.708;2023-03-14T00:43:38;1.35;;;0.75;;
28437;SDS011;15667;52.376;9.708;2023-03-14T00:46:04;2.25;;;1.33;;
28437;SDS011;15667;52.376;9.708;2023-03-14T00:48:30;2.92;;;1.08;;
28437;SDS011;15667;52.376;9.708;2023-03-14T00:50:56;4.38;;;1.25;;
28437;SDS011;15667;52.376;9.708;2023-03-14T00:53:22;5.22;;;1.20;;
28437;SDS011;15667;52.376;9.708;2023-03-14T00:55:48;4.32;;;1.20;;
28437;SDS011;15667;52.376;9.708;2023-03-14T00:58:15;3.80;;;1.10;;
28437;SDS011;15667;52.376;9.708;2023-03-14T01:00:41;3.67;;;1.10;;
28437;SDS011;15667;52.376;9.708;2023-03-14T01:03:08;3.15;;;0.85;;
28437;SDS011;15667;52.376;9.708;2023-03-14T01:05:35;3.58;;;1.30;;
28437;SDS011;15667;52.376;9.708;2023-03-14T01:08:01;4.47;;;1.20;;
28437;SDS011;15667;52.376;9.708;2023-03-14T01:10:27;1.63;;;0.70;;
28437;SDS011;15667;52.376;9.708;2023-03-14T01:12:53;3.90;;;1.08;;
28437;SDS011;15667;52.376;9.708;2023-03-14T01:15:19;6.32;;;1.25;;
28437;SDS011;15667;52.376;9.708;2023-03-14T01:17:45;4.45;;;1.10;;
28437;SDS011;15667;52.376;9.708;2023-03-14T01:20:12;3.17;;;0.95;;
28437;SDS011;15667;52.376;9.708;2023-03-14T01:22:39;4.03;;;1.00;;
28437;SDS011;15667;52.376;9.708;2023-03-14T01:25:07;3.03;;;1.13;;
28437;SDS011;15667;52.376;9.708;2023-03-14T01:27:40;4.90;;;1.00;;
28437;SDS011;15667;52.376;9.708;2023-03-14T01:30:06;5.75;;;1.60;;
28437;SDS011;15667;52.376;9.708;2023-03-14T01:32:33;3.45;;;1.02;;
28437;SDS011;15667;52.376;9.708;2023-03-14T01:34:59;5.07;;;1.17;;
28437;SDS011;15667;52.376;9.708;2023-03-14T01:37:25;4.85;;;0.98;;
28437;SDS011;15667;52.376;9.708;2023-03-14T01:39:50;6.07;;;1.30;;
28437;SDS011;15667;52.376;9.708;2023-03-14T01:42:16;4.78;;;1.20;;
28437;SDS011;15667;52.376;9.708;2023-03-14T01:47:21;4.60;;;1.10;;
28437;SDS011;15667;52.376;9.708;2023-03-14T01:49:59;4.53;;;1.17;;
28437;SDS011;15667;52.376;9.708;2023-03-14T01:52:36;6.60;;;1.05;;
28437;SDS011;15667;52.376;9.708;2023-03-14T01:55:13;3.85;;;1.20;;
28437;SDS011;15667;52.376;9.708;2023-03-14T01:57:52;2.33;;;0.65;;
28437;SDS011;15667;52.376;9.708;2023-03-14T02:00:22;3.25;;;1.00;;
28437;SDS011;15667;52.376;9.708;2023-03-14T02:02:53;4.07;;;1.08;;
28437;SDS011;15667;52.376;9.708;2023-03-14T02:05:25;5.65;;;0.90;;
28437;SDS011;15667;52.376;9.708;2023-03-14T02:07:54;5.90;;;1.02;;
28437;SDS011;15667;52.376;9.708;2023-03-14T02:10:25;4.60;;;1.20;;
28437;SDS011;15667;52.376;9.708;2023-03-14T02:12:55;2.10;;;0.80;;
28437;SDS011;15667;52.376;9.708;2023-03-14T02:15:22;5.35;;;1.08;;
28437;SDS011;15667;52.376;9.708;2023-03-14T02:17:48;9.00;;;1.33;;
28437;SDS011;15667;52.376;9.708;2023-03-14T02:23:13;5.55;;;1.00;;
28437;SDS011;15667;52.376;9.708;2023-03-14T02:25:43;4.25;;;1.15;;
28437;SDS011;15667;52.376;9.708;2023-03-14T02:28:15;5.25;;;1.15;;
28437;SDS011;15667;52.376;9.708;2023-03-14T02:30:41;4.15;;;0.93;;
28437;SDS011;15667;52.376;9.708;2023-03-14T02:33:09;4.72;;;1.13;;
28437;SDS011;15667;52.376;9.708;2023-03-14T02:35:44;2.83;;;1.00;;
28437;SDS011;15667;52.376;9.708;2023-03-14T02:38:20;4.95;;;1.00;;
28437;SDS011;15667;52.376;9.708;2023-03-14T02:40:52;2.42;;;0.93;;
28437;SDS011;15667;52.376;9.708;2023-03-14T02:43:17;3.58;;;1.00;;
28437;SDS011;15667;52.376;9.708;2023-03-14T02:45:44;3.47;;;0.98;;
28437;SDS011;15667;52.376;9.708;2023-03-14T02:48:25;6.82;;;1.23;;
28437;SDS011;15667;52.376;9.708;2023-03-14T02:50:56;2.88;;;0.80;;
28437;SDS011;15667;52.376;9.708;2023-03-14T02:53:28;4.82;;;1.00;;
28437;SDS011;15667;52.376;9.708;2023-03-14T02:55:58;3.97;;;1.02;;
28437;SDS011;15667;52.376;9.708;2023-03-14T02:58:25;8.35;;;1.00;;
28437;SDS011;15667;52.376;9.708;2023-03-14T03:00:51;3.13;;;0.70;;
28437;SDS011;15667;52.376;9.708;2023-03-14T03:03:17;5.07;;;0.85;;
28437;SDS011;15667;52.376;9.708;2023-03-14T03:05:43;5.57;;;0.93;;
28437;SDS011;15667;52.376;9.708;2023-03-14T03:08:12;2.83;;;0.98;;
28437;SDS011;15667;52.376;9.708;2023-03-14T03:10:38;3.95;;;1.00;;
28437;SDS011;15667;52.376;9.708;2023-03-14T03:13:04;2.92;;;0.80;;
28437;SDS011;15667;52.376;9.708;2023-03-14T03:15:30;5.43;;;1.08;;
28437;SDS011;15667;52.376;9.708;2023-03-14T03:17:56;2.15;;;0.98;;
28437;SDS011;15667;52.376;9.708;2023-03-14T03:20:21;7.57;;;1.10;;
28437;SDS011;15667;52.376;9.708;2023-03-14T03:22:47;5.80;;;0.88;;
28437;SDS011;15667;52.376;9.708;2023-03-14T03:25:14;3.42;;;0.90;;
28437;SDS011;15667;52.376;9.708;2023-03-14T03:27:40;4.03;;;1.00;;
28437;SDS011;15667;52.376;9.708;2023-03-14T03:30:07;3.58;;;0.80;;
28437;SDS011;15667;52.376;9.708;2023-03-14T03:32:34;4.28;;;1.30;;
28437;SDS011;15667;52.376;9.708;2023-03-14T03:34:59;5.15;;;1.30;;
28437;SDS011;15667;52.376;9.708;2023-03-14T03:37:26;4.57;;;0.90;;
28437;SDS011;15667;52.376;9.708;2023-03-14T03:39:52;4.32;;;0.85;;
28437;SDS011;15667;52.376;9.708;2023-03-14T03:42:18;4.13;;;1.08;;
28437;SDS011;15667;52.376;9.708;2023-03-14T03:44:44;3.83;;;0.77;;
28437;SDS011;15667;52.376;9.708;2023-03-14T03:47:10;5.18;;;0.90;;
28437;SDS011;15667;52.376;9.708;2023-03-14T03:49:36;6.85;;;0.75;;
28437;SDS011;15667;52.376;9.708;2023-03-14T03:52:02;5.65;;;0.98;;
28437;SDS011;15667;52.376;9.708;2023-03-14T03:54:27;4.20;;;1.17;;
28437;SDS011;15667;52.376;9.708;2023-03-14T03:56:54;5.57;;;1.00;;
28437;SDS011;15667;52.376;9.708;2023-03-14T03:59:20;6.85;;;1.58;;
28437;SDS011;15667;52.376;9.708;2023-03-14T04:01:46;5.63;;;1.50;;
28437;SDS011;15667;52.376;9.708;2023-03-14T04:04:12;6.35;;;1.38;;
28437;SDS011;15667;52.376;9.708;2023-03-14T04:06:38;4.13;;;1.38;;
28437;SDS011;15667;52.376;9.708;2023-03-14T04:09:05;5.65;;;1.23;;
28437;SDS011;15667;52.376;9.708;2023-03-14T04:11:31;2.95;;;0.90;;
28437;SDS011;15667;52.376;9.708;2023-03-14T04:13:57;4.53;;;0.85;;
28437;SDS011;15667;52.376;9.708;2023-03-14T04:16:23;2.40;;;0.75;;
28437;SDS011;15667;52.376;9.708;2023-03-14T04:18:50;2.95;;;0.82;;
28437;SDS011;15667;52.376;9.708;2023-03-14T04:21:16;3.55;;;0.80;;
28437;SDS011;15667;52.376;9.708;2023-03-14T04:23:42;5.90;;;0.88;;
28437;SDS011;15667;52.376;9.708;2023-03-14T04:26:08;4.78;;;0.70;;
28437;SDS011;15667;52.376;9.708;2023-03-14T04:28:34;4.28;;;0.63;;
28437;SDS011;15667;52.376;9.708;2023-03-14T04:31:11;4.30;;;0.75;;
28437;SDS011;15667;52.376;9.708;2023-03-14T04:33:39;1.30;;;0.60;;
28437;SDS011;15667;52.376;9.708;2023-03-14T04:36:06;2.83;;;0.77;;
28437;SDS011;15667;52.376;9.708;2023-03-14T04:38:32;4.55;;;0.82;;
28437;SDS011;15667;52.376;9.708;2023-03-14T04:40:59;2.03;;;0.80;;
28437;SDS011;15667;52.376;9.708;2023-03-14T04:43:25;2.65;;;0.55;;
28437;SDS011;15667;52.376;9.708;2023-03-14T04:45:54;2.13;;;0.75;;
28437;SDS011;15667;52.376;9.708;2023-03-14T04:48:21;5.22;;;0.90;;
28437;SDS011;15667;52.376;9.708;2023-03-14T04:50:48;1.88;;;0.60;;
28437;SDS011;15667;52.376;9.708;2023-03-14T04:53:14;2.53;;;0.70;;
28437;SDS011;15667;52.376;9.708;2023-03-14T04:55:50;2.05;;;0.40;;
28437;SDS011;15667;52.376;9.708;2023-03-14T04:58:18;0.95;;;0.50;;
28437;SDS011;15667;52.376;9.708;2023-03-14T05:00:44;7.97;;;0.75;;
28437;SDS011;15667;52.376;9.708;2023-03-14T05:03:10;1.60;;;0.52;;
28437;SDS011;15667;52.376;9.708;2023-03-14T05:05:35;3.20;;;0.52;;
28437;SDS011;15667;52.376;9.708;2023-03-14T05:08:01;2.88;;;0.60;;
28437;SDS011;15667;52.376;9.708;2023-03-14T05:10:27;3.25;;;0.63;;
28437;SDS011;15667;52.376;9.708;2023-03-14T05:12:53;5.75;;;0.70;;
28437;SDS011;15667;52.376;9.708;2023-03-14T05:15:19;3.30;;;1.15;;
28437;SDS011;15667;52.376;9.708;2023-03-14T05:17:44;1.55;;;0.80;;
28437;SDS011;15667;52.376;9.708;2023-03-14T05:22:37;9.55;;;2.30;;
28437;SDS011;15667;52.376;9.708;2023-03-14T05:25:04;8.65;;;1.73;;
28437;SDS011;15667;52.376;9.708;2023-03-14T05:27:30;5.93;;;0.75;;
28437;SDS011;15667;52.376;9.708;2023-03-14T05:29:59;4.20;;;1.05;;
28437;SDS011;15667;52.376;9.708;2023-03-14T05:32:25;7.35;;;1.60;;
28437;SDS011;15667;52.376;9.708;2023-03-14T05:34:51;8.45;;;1.77;;
28437;SDS011;15667;52.376;9.708;2023-03-14T05:37:17;7.60;;;1.27;;
28437;SDS011;15667;52.376;9.708;2023-03-14T05:39:42;5.50;;;1.02;;
28437;SDS011;15667;52.376;9.708;2023-03-14T05:42:08;5.35;;;0.80;;
28437;SDS011;15667;52.376;9.708;2023-03-14T05:44:34;2.00;;;0.80;;
28437;SDS011;15667;52.376;9.708;2023-03-14T05:46:59;4.60;;;0.88;;
28437;SDS011;15667;52.376;9.708;2023-03-14T05:49:25;3.08;;;1.00;;
28437;SDS011;15667;52.376;9.708;2023-03-14T05:51:51;6.10;;;1.42;;
28437;SDS011;15667;52.376;9.708;2023-03-14T05:54:17;5.13;;;1.20;;
28437;SDS011;15667;52.376;9.708;2023-03-14T05:56:43;5.13;;;0.88;;
28437;SDS011;15667;52.376;9.708;2023-03-14T05:59:09;7.13;;;1.25;;
28437;SDS011;15667;52.376;9.708;2023-03-14T06:01:35;5.75;;;1.50;;
28437;SDS011;15667;52.376;9.708;2023-03-14T06:04:03;8.88;;;1.65;;
28437;SDS011;15667;52.376;9.708;2023-03-14T06:06:28;3.45;;;1.30;;
28437;SDS011;15667;52.376;9.708;2023-03-14T06:08:54;3.45;;;1.05;;
28437;SDS011;15667;52.376;9.708;2023-03-14T06:11:20;6.07;;;0.90;;
28437;SDS011;15667;52.376;9.708;2023-03-14T06:13:46;6.15;;;1.40;;
28437;SDS011;15667;52.376;9.708;2023-03-14T06:16:12;7.10;;;1.60;;
28437;SDS011;15667;52.376;9.708;2023-03-14T06:18:39;4.80;;;1.42;;
28437;SDS011;15667;52.376;9.708;2023-03-14T06:21:05;5.40;;;0.82;;
28437;SDS011;15667;52.376;9.708;2023-03-14T06:23:31;5.18;;;1.20;;
28437;SDS011;15667;52.376;9.708;2023-03-14T06:25:57;14.18;;;2.33;;
28437;SDS011;15667;52.376;9.708;2023-03-14T06:28:24;6.07;;;0.98;;
28437;SDS011;15667;52.376;9.708;2023-03-14T06:30:50;7.90;;;1.30;;
28437;SDS011;15667;52.376;9.708;2023-03-14T06:33:16;8.52;;;1.15;;
28437;SDS011;15667;52.376;9.708;2023-03-14T06:35:42;3.97;;;1.10;;
28437;SDS011;15667;52.376;9.708;2023-03-14T06:38:08;6.75;;;1.02;;
28437;SDS011;15667;52.376;9.708;2023-03-14T06:40:33;1.10;;;0.60;;
28437;SDS011;15667;52.376;9.708;2023-03-14T06:42:59;2.40;;;0.82;;
28437;SDS011;15667;52.376;9.708;2023-03-14T06:45:25;5.95;;;0.82;;
28437;SDS011;15667;52.376;9.708;2023-03-14T06:47:51;4.57;;;0.80;;
28437;SDS011;15667;52.376;9.708;2023-03-14T06:50:17;1.90;;;0.77;;
28437;SDS011;15667;52.376;9.708;2023-03-14T06:52:43;5.30;;;1.00;;
28437;SDS011;15667;52.376;9.708;2023-03-14T06:55:13;1.80;;;0.88;;
28437;SDS011;15667;52.376;9.708;2023-03-14T06:57:39;1.25;;;0.50;;
28437;SDS011;15667;52.376;9.708;2023-03-14T07:00:06;1.10;;;0.60;;
28437;SDS011;15667;52.376;9.708;2023-03-14T07:02:32;3.22;;;0.80;;
28437;SDS011;15667;52.376;9.708;2023-03-14T07:04:58;4.18;;;0.70;;
28437;SDS011;15667;52.376;9.708;2023-03-14T07:07:25;1.63;;;0.30;;
28437;SDS011;15667;52.376;9.708;2023-03-14T07:09:51;2.22;;;0.50;;
28437;SDS011;15667;52.376;9.708;2023-03-14T07:12:17;2.72;;;0.40;;
28437;SDS011;15667;52.376;9.708;2023-03-14T07:14:42;0.75;;;0.30;;
28437;SDS011;15667;52.376;9.708;2023-03-14T07:17:11;3.25;;;0.43;;
28437;SDS011;15667;52.376;9.708;2023-03-14T07:19:37;2.95;;;0.63;;
28437;SDS011;15667;52.376;9.708;2023-03-14T07:22:04;4.47;;;0.60;;
28437;SDS011;15667;52.376;9.708;2023-03-14T07:24:30;3.45;;;0.50;;
28437;SDS011;15667;52.376;9.708;2023-03-14T07:27:14;1.70;;;0.43;;
28437;SDS011;15667;52.376;9.708;2023-03-14T07:29:40;0.57;;;0.40;;
28437;SDS011;15667;52.376;9.708;2023-03-14T07:32:06;1.15;;;0.50;;
28437;SDS011;15667;52.376;9.708;2023-03-14T07:34:34;3.13;;;0.57;;
28437;SDS011;15667;52.376;9.708;2023-03-14T07:37:00;0.77;;;0.40;;
28437;SDS011;15667;52.376;9.708;2023-03-14T07:39:26;0.90;;;0.40;;
28437;SDS011;15667;52.376;9.708;2023-03-14T07:41:52;0.90;;;0.35;;
28437;SDS011;15667;52.376;9.708;2023-03-14T07:44:18;1.75;;;0.40;;
28437;SDS011;15667;52.376;9.708;2023-03-14T07:46:44;3.00;;;0.47;;
28437;SDS011;15667;52.376;9.708;2023-03-14T07:49:10;0.80;;;0.38;;
28437;SDS011;15667;52.376;9.708;2023-03-14T07:51:36;1.23;;;0.30;;
28437;SDS011;15667;52.376;9.708;2023-03-14T07:54:04;2.08;;;0.38;;
28437;SDS011;15667;52.376;9.708;2023-03-14T07:56:30;4.50;;;0.82;;
28437;SDS011;15667;52.376;9.708;2023-03-14T07:58:56;1.50;;;0.43;;
28437;SDS011;15667;52.376;9.708;2023-03-14T08:01:22;0.88;;;0.45;;
28437;SDS011;15667;52.376;9.708;2023-03-14T08:03:47;0.60;;;0.40;;
28437;SDS011;15667;52.376;9.708;2023-03-14T08:06:13;1.25;;;0.35;;
28437;SDS011;15667;52.376;9.708;2023-03-14T08:08:39;0.47;;;0.30;;
28437;SDS011;15667;52.376;9.708;2023-03-14T08:11:06;1.40;;;0.45;;
28437;SDS011;15667;52.376;9.708;2023-03-14T08:13:35;1.48;;;0.43;;
28437;SDS011;15667;52.376;9.708;2023-03-14T08:16:01;0.95;;;0.50;;
28437;SDS011;15667;52.376;9.708;2023-03-14T08:18:27;0.68;;;0.40;;
28437;SDS011;15667;52.376;9.708;2023-03-14T08:20:52;0.90;;;0.40;;
28437;SDS011;15667;52.376;9.708;2023-03-14T08:23:18;0.98;;;0.40;;
28437;SDS011;15667;52.376;9.708;2023-03-14T08:25:43;0.95;;;0.40;;
28437;SDS011;15667;52.376;9.708;2023-03-14T08:28:09;1.30;;;0.47;;
28437;SDS011;15667;52.376;9.708;2023-03-14T08:30:35;1.67;;;0.50;;
28437;SDS011;15667;52.376;9.708;2023-03-14T08:33:00;1.90;;;0.65;;
28437;SDS011;15667;52.376;9.708;2023-03-14T08:35:27;3.00;;;0.80;;
28437;SDS011;15667;52.376;9.708;2023-03-14T08:37:52;0.40;;;0.30;;
28437;SDS011;15667;52.376;9.708;2023-03-14T08:40:18;0.85;;;0.40;;
28437;SDS011;15667;52.376;9.708;2023-03-14T08:42:44;3.15;;;0.57;;
28437;SDS011;15667;52.376;9.708;2023-03-14T08:45:11;1.83;;;0.55;;
28437;SDS011;15667;52.376;9.708;2023-03-14T08:47:38;1.02;;;0.30;;
28437;SDS011;15667;52.376;9.708;2023-03-14T08:50:05;2.22;;;0.50;;
28437;SDS011;15667;52.376;9.708;2023-03-14T08:52:32;0.30;;;0.30;;
28437;SDS011;15667;52.376;9.708;2023-03-14T08:54:58;1.40;;;0.60;;
28437;SDS011;15667;52.376;9.708;2023-03-14T08:57:24;1.13;;;0.57;;
28437;SDS011;15667;52.376;9.708;2023-03-14T08:59:53;1.67;;;0.35;;
28437;SDS011;15667;52.376;9.708;2023-03-14T09:02:20;1.10;;;0.50;;
28437;SDS011;15667;52.376;9.708;2023-03-14T09:04:46;1.23;;;0.60;;
28437;SDS011;15667;52.376;9.708;2023-03-14T09:07:11;3.17;;;0.70;;
28437;SDS011;15667;52.376;9.708;2023-03-14T09:09:37;3.53;;;0.40;;
28437;SDS011;15667;52.376;9.708;2023-03-14T09:12:03;1.48;;;0.38;;
28437;SDS011;15667;52.376;9.708;2023-03-14T09:14:29;1.20;;;0.30;;
28437;SDS011;15667;52.376;9.708;2023-03-14T09:16:55;2.70;;;0.70;;
28437;SDS011;15667;52.376;9.708;2023-03-14T09:19:21;1.27;;;0.80;;
28437;SDS011;15667;52.376;9.708;2023-03-14T09:21:46;3.78;;;1.23;;
28437;SDS011;15667;52.376;9.708;2023-03-14T09:24:12;1.17;;;0.60;;
28437;SDS011;15667;52.376;9.708;2023-03-14T09:26:38;0.70;;;0.55;;
28437;SDS011;15667;52.376;9.708;2023-03-14T09:29:03;3.45;;;0.52;;
28437;SDS011;15667;52.376;9.708;2023-03-14T09:31:29;2.15;;;0.80;;
28437;SDS011;15667;52.376;9.708;2023-03-14T09:33:55;1.48;;;0.80;;
28437;SDS011;15667;52.376;9.708;2023-03-14T09:36:20;3.22;;;0.73;;
28437;SDS011;15667;52.376;9.708;2023-03-14T09:38:46;0.50;;;0.50;;
28437;SDS011;15667;52.376;9.708;2023-03-14T09:41:15;2.15;;;0.70;;
28437;SDS011;15667;52.376;9.708;2023-03-14T09:43:46;1.67;;;0.70;;
28437;SDS011;15667;52.376;9.708;2023-03-14T09:46:15;0.80;;;0.65;;
28437;SDS011;15667;52.376;9.708;2023-03-14T09:48:42;2.83;;;0.75;;
28437;SDS011;15667;52.376;9.708;2023-03-14T09:51:16;5.57;;;1.25;;
28437;SDS011;15667;52.376;9.708;2023-03-14T09:53:47;5.68;;;1.50;;
28437;SDS011;15667;52.376;9.708;2023-03-14T09:56:16;2.25;;;1.00;;
28437;SDS011;15667;52.376;9.708;2023-03-14T09:58:49;2.72;;;0.70;;
28437;SDS011;15667;52.376;9.708;2023-03-14T10:01:20;0.73;;;0.50;;
28437;SDS011;15667;52.376;9.708;2023-03-14T10:03:50;0.70;;;0.40;;
28437;SDS011;15667;52.376;9.708;2023-03-14T10:06:17;1.45;;;0.55;;
28437;SDS011;15667;52.376;9.708;2023-03-14T10:08:43;1.58;;;0.57;;
28437;SDS011;15667;52.376;9.708;2023-03-14T10:11:12;1.00;;;0.60;;
28437;SDS011;15667;52.376;9.708;2023-03-14T10:13:50;2.55;;;0.40;;
28437;SDS011;15667;52.376;9.708;2023-03-14T10:16:45;1.50;;;0.55;;
28437;SDS011;15667;52.376;9.708;2023-03-14T10:19:12;1.48;;;0.50;;
28437;SDS011;15667;52.376;9.708;2023-03-14T10:21:50;1.27;;;0.65;;
28437;SDS011;15667;52.376;9.708;2023-03-14T10:26:54;1.27;;;0.70;;
28437;SDS011;15667;52.376;9.708;2023-03-14T10:29:23;2.92;;;1.02;;
28437;SDS011;15667;52.376;9.708;2023-03-14T10:31:57;1.52;;;0.68;;
28437;SDS011;15667;52.376;9.708;2023-03-14T10:34:36;3.37;;;1.40;;
28437;SDS011;15667;52.376;9.708;2023-03-14T10:37:21;2.08;;;0.88;;
28437;SDS011;15667;52.376;9.708;2023-03-14T10:39:51;2.35;;;1.08;;
28437;SDS011;15667;52.376;9.708;2023-03-14T10:42:26;3.42;;;1.63;;
28437;SDS011;15667;52.376;9.708;2023-03-14T10:44:55;3.55;;;2.00;;
28437;SDS011;15667;52.376;9.708;2023-03-14T10:47:24;5.45;;;2.55;;
28437;SDS011;15667;52.376;9.708;2023-03-14T10:49:53;2.92;;;1.63;;
28437;SDS011;15667;52.376;9.708;2023-03-14T10:57:38;7.22;;;2.20;;
28437;SDS011;15667;52.376;9.708;2023-03-14T11:00:05;2.05;;;1.55;;
28437;SDS011;15667;52.376;9.708;2023-03-14T11:05:24;2.17;;;1.40;;
28437;SDS011;15667;52.376;9.708;2023-03-14T11:08:20;1.40;;;1.30;;
28437;SDS011;15667;52.376;9.708;2023-03-14T11:10:50;3.20;;;1.90;;
28437;SDS011;15667;52.376;9.708;2023-03-14T11:27:22;1.48;;;0.65;;
28437;SDS011;15667;52.376;9.708;2023-03-14T11:29:55;1.83;;;1.00;;
28437;SDS011;15667;52.376;9.708;2023-03-14T11:35:33;2.55;;;1.55;;
28437;SDS011;15667;52.376;9.708;2023-03-14T11:38:05;2.25;;;1.65;;
28437;SDS011;15667;52.376;9.708;2023-03-14T11:40:54;3.25;;;1.67;;
28437;SDS011;15667;52.376;9.708;2023-03-14T11:43:26;6.18;;;2.00;;
28437;SDS011;15667;52.376;9.708;2023-03-14T11:46:25;3.58;;;2.08;;
28437;SDS011;15667;52.376;9.708;2023-03-14T11:51:32;6.10;;;3.10;;
28437;SDS011;15667;52.376;9.708;2023-03-14T11:54:07;5.60;;;3.10;;
28437;SDS011;15667;52.376;9.708;2023-03-14T11:59:18;2.45;;;2.05;;
28437;SDS011;15667;52.376;9.708;2023-03-14T12:02:38;2.53;;;1.73;;
28437;SDS011;15667;52.376;9.708;2023-03-14T12:04:50;2.97;;;1.42;;
28437;SDS011;15667;52.376;9.708;2023-03-14T12:07:21;0.77;;;0.68;;
28437;SDS011;15667;52.376;9.708;2023-03-14T12:09:54;1.55;;;1.10;;
28437;SDS011;15667;52.376;9.708;2023-03-14T12:12:21;1.33;;;1.10;;
28437;SDS011;15667;52.376;9.708;2023-03-14T12:14:59;1.02;;;0.93;;
28437;SDS011;15667;52.376;9.708;2023-03-14T12:22:43;0.40;;;0.40;;
28437;SDS011;15667;52.376;9.708;2023-03-14T12:25:24;0.70;;;0.70;;
28437;SDS011;15667;52.376;9.708;2023-03-14T12:35:36;0.88;;;0.88;;
28437;SDS011;15667;52.376;9.708;2023-03-14T12:40:52;6.53;;;1.05;;
28437;SDS011;15667;52.376;9.708;2023-03-14T12:43:28;1.13;;;0.90;;
28437;SDS011;15667;52.376;9.708;2023-03-14T12:46:15;1.10;;;0.88;;
28437;SDS011;15667;52.376;9.708;2023-03-14T12:49:07;2.55;;;0.95;;
28437;SDS011;15667;52.376;9.708;2023-03-14T12:51:41;3.33;;;0.82;;
28437;SDS011;15667;52.376;9.708;2023-03-14T13:05:18;6.35;;;1.05;;
28437;SDS011;15667;52.376;9.708;2023-03-14T13:15:26;9.98;;;1.70;;
28437;SDS011;15667;52.376;9.708;2023-03-14T13:18:02;6.85;;;1.60;;
28437;SDS011;15667;52.376;9.708;2023-03-14T13:23:20;8.48;;;1.73;;
28437;SDS011;15667;52.376;9.708;2023-03-14T13:25:45;7.25;;;1.40;;
28437;SDS011;15667;52.376;9.708;2023-03-14T13:28:13;8.13;;;1.75;;
28437;SDS011;15667;52.376;9.708;2023-03-14T13:30:40;5.03;;;1.63;;
28437;SDS011;15667;52.376;9.708;2023-03-14T13:33:11;12.75;;;1.50;;
28437;SDS011;15667;52.376;9.708;2023-03-14T13:35:46;7.82;;;1.75;;
28437;SDS011;15667;52.376;9.708;2023-03-14T13:38:15;10.40;;;1.45;;
28437;SDS011;15667;52.376;9.708;2023-03-14T13:40:43;14.05;;;1.30;;
28437;SDS011;15667;52.376;9.708;2023-03-14T13:43:18;8.00;;;1.48;;
28437;SDS011;15667;52.376;9.708;2023-03-14T13:45:51;13.10;;;1.73;;
28437;SDS011;15667;52.376;9.708;2023-03-14T13:48:22;8.25;;;1.40;;
28437;SDS011;15667;52.376;9.708;2023-03-14T13:50:53;7.57;;;1.85;;
28437;SDS011;15667;52.376;9.708;2023-03-14T13:53:20;11.80;;;1.70;;
28437;SDS011;15667;52.376;9.708;2023-03-14T13:55:46;12.55;;;1.52;;
28437;SDS011;15667;52.376;9.708;2023-03-14T13:58:20;11.18;;;1.45;;
28437;SDS011;15667;52.376;9.708;2023-03-14T14:01:33;7.28;;;1.33;;
28437;SDS011;15667;52.376;9.708;2023-03-14T14:03:42;10.77;;;1.70;;
28437;SDS011;15667;52.376;9.708;2023-03-14T14:06:16;8.57;;;1.67;;
28437;SDS011;15667;52.376;9.708;2023-03-14T14:09:15;11.70;;;1.67;;
28437;SDS011;15667;52.376;9.708;2023-03-14T14:11:54;16.00;;;2.35;;
28437;SDS011;15667;52.376;9.708;2023-03-14T14:14:36;9.27;;;2.50;;
28437;SDS011;15667;52.376;9.708;2023-03-14T14:17:10;16.70;;;2.65;;
28437;SDS011;15667;52.376;9.708;2023-03-14T14:19:39;24.55;;;2.40;;
28437;SDS011;15667;52.376;9.708;2023-03-14T14:22:06;15.77;;;2.42;;
28437;SDS011;15667;52.376;9.708;2023-03-14T14:24:35;14.00;;;2.13;;
28437;SDS011;15667;52.376;9.708;2023-03-14T14:27:18;15.75;;;2.15;;
28437;SDS011;15667;52.376;9.708;2023-03-14T14:32:43;19.98;;;2.70;;
28437;SDS011;15667;52.376;9.708;2023-03-14T14:35:10;16.48;;;2.40;;
28437;SDS011;15667;52.376;9.708;2023-03-14T14:37:48;20.73;;;5.07;;
28437;SDS011;15667;52.376;9.708;2023-03-14T14:42:40;11.02;;;1.88;;
28437;SDS011;15667;52.376;9.708;2023-03-14T14:45:07;15.27;;;2.08;;
28437;SDS011;15667;52.376;9.708;2023-03-14T14:47:49;9.30;;;1.90;;
28437;SDS011;15667;52.376;9.708;2023-03-14T14:52:59;11.43;;;1.70;;
28437;SDS011;15667;52.376;9.708;2023-03-14T14:55:34;13.55;;;2.00;;
28437;SDS011;15667;52.376;9.708;2023-03-14T14:58:17;16.85;;;2.03;;
28437;SDS011;15667;52.376;9.708;2023-03-14T15:00:51;13.63;;;1.75;;
28437;SDS011;15667;52.376;9.708;2023-03-14T15:03:20;15.32;;;1.90;;
28437;SDS011;15667;52.376;9.708;2023-03-14T15:05:46;8.05;;;1.63;;
28437;SDS011;15667;52.376;9.708;2023-03-14T15:08:13;9.77;;;1.30;;
28437;SDS011;15667;52.376;9.708;2023-03-14T15:10:38;9.90;;;2.15;;
28437;SDS011;15667;52.376;9.708;2023-03-14T15:13:04;18.27;;;2.10;;
28437;SDS011;15667;52.376;9.708;2023-03-14T15:15:30;15.45;;;1.60;;
28437;SDS011;15667;52.376;9.708;2023-03-14T15:17:56;11.10;;;1.52;;
28437;SDS011;15667;52.376;9.708;2023-03-14T15:20:22;10.70;;;1.50;;
28437;SDS011;15667;52.376;9.708;2023-03-14T15:22:50;11.45;;;1.80;;
28437;SDS011;15667;52.376;9.708;2023-03-14T15:25:16;15.85;;;1.73;;
28437;SDS011;15667;52.376;9.708;2023-03-14T15:27:42;9.15;;;1.40;;
28437;SDS011;15667;52.376;9.708;2023-03-14T15:30:11;9.00;;;1.40;;
28437;SDS011;15667;52.376;9.708;2023-03-14T15:32:38;12.77;;;2.05;;
28437;SDS011;15667;52.376;9.708;2023-03-14T15:35:04;7.03;;;1.40;;
28437;SDS011;15667;52.376;9.708;2023-03-14T15:37:29;8.43;;;1.77;;
28437;SDS011;15667;52.376;9.708;2023-03-14T15:39:55;12.75;;;1.40;;
28437;SDS011;15667;52.376;9.708;2023-03-14T15:42:23;13.70;;;2.38;;
28437;SDS011;15667;52.376;9.708;2023-03-14T15:44:48;7.60;;;1.25;;
28437;SDS011;15667;52.376;9.708;2023-03-14T15:47:14;10.68;;;1.95;;
28437;SDS011;15667;52.376;9.708;2023-03-14T15:49:40;12.18;;;1.80;;
28437;SDS011;15667;52.376;9.708;2023-03-14T15:52:05;9.30;;;1.50;;
28437;SDS011;15667;52.376;9.708;2023-03-14T15:54:33;11.82;;;1.67;;
28437;SDS011;15667;52.376;9.708;2023-03-14T15:56:59;14.57;;;1.80;;
28437;SDS011;15667;52.376;9.708;2023-03-14T15:59:25;14.68;;;1.75;;
28437;SDS011;15667;52.376;9.708;2023-03-14T16:01:50;9.02;;;1.17;;
28437;SDS011;15667;52.376;9.708;2023-03-14T16:04:16;12.40;;;2.13;;
28437;SDS011;15667;52.376;9.708;2023-03-14T16:06:42;9.55;;;1.90;;
28437;SDS011;15667;52.376;9.708;2023-03-14T16:09:10;15.95;;;1.90;;
28437;SDS011;15667;52.376;9.708;2023-03-14T16:11:36;11.43;;;1.88;;
28437;SDS011;15667;52.376;9.708;2023-03-14T16:14:05;9.45;;;1.70;;
28437;SDS011;15667;52.376;9.708;2023-03-14T16:16:31;7.90;;;1.20;;
28437;SDS011;15667;52.376;9.708;2023-03-14T16:18:57;11.02;;;1.55;;
28437;SDS011;15667;52.376;9.708;2023-03-14T16:21:23;12.43;;;1.45;;